Pruszkow, Poland
Current Conditions -  °F | °C
As of 6:00 AM on Monday 24 Nov 2014 (Local Time) from EPWA Reporting Station
Broken Clouds Broken Clouds  
Wind Chill: 24°   Ceiling: 2600
Heat Index: 32°   Visibility: 5mi
Dew Point: 30°   Wind: 9mph
Humidity: 93%   Direction: 120°ESE
Pressure: 30.42"   Gusts: NA
Location:  52.22°N, 20.82°E
Report Text: EPWA 240400Z 12008KT 8000 BKN026 M00/M01 Q1030 NOSIG
Loading
Personal Weather Stations






























Interactive Weather Map New forecast layout! Learn more

10-Day Weather Forecast

Advertisements
Track Severe Weather on mobile